Current Weather

Van Nuys

Van Nuys, California (KVNY)

Report from: Sunday, February 25, 2024 11:51 AM PST
Current time: Sunday, February 25, 2024 12:52 PM PST

Nearby weather – Weather history – Daily summaries
Weather forecast

Temperature18.9°C (66.0°F)
Dew point6.1°C (43.0°F)
Winds Calm
Visibility10 mi. (16.1 km)
Clouds Sky clear
Altimeter30.06 in.Hg (1018 mB)
Relative humidity43 %
Density altitude456 ft. (139 m)
Sea-level pressure101.7 kPa (1017 mB, 30.04 in.Hg)
Remarks Automated weather observing station with precipitation discriminator
Flight conditions Visual Meteorological Conditions
Raw dataKVNY 251951Z 00000KT 10SM CLR 19/06 A3006 RMK AO2 SLP174 T01890061
An error has occurred. This application may no longer respond until reloaded. Reload 🗙